createdAt,value
2023-04-12T00:00:26.358Z,14.13
2023-04-12T00:02:55.085Z,13.75
2023-04-12T00:05:27.384Z,11.45
2023-04-12T00:07:55.892Z,8.90
2023-04-12T00:10:24.377Z,9.38
2023-04-12T00:12:52.828Z,11.80
2023-04-12T00:15:22.558Z,8.98
2023-04-12T00:17:50.934Z,8.93
2023-04-12T00:20:19.855Z,8.38
2023-04-12T00:22:50.452Z,8.20
2023-04-12T00:25:18.788Z,6.93
2023-04-12T00:27:47.074Z,8.93
2023-04-12T00:30:15.562Z,7.07
2023-04-12T00:32:45.404Z,7.03
2023-04-12T00:35:14.369Z,6.22
2023-04-12T00:37:42.906Z,7.43
2023-04-12T00:40:13.226Z,8.50
2023-04-12T00:42:41.965Z,7.53
2023-04-12T00:45:11.625Z,6.90
2023-04-12T00:47:42.938Z,9.07
2023-04-12T00:50:13.578Z,8.80
2023-04-12T00:52:42.008Z,6.25
2023-04-12T00:55:11.943Z,9.85
2023-04-12T00:57:41.711Z,6.40
2023-04-12T01:00:13.527Z,5.90
2023-04-12T01:02:50.224Z,7.53
2023-04-12T01:05:23.904Z,5.63
2023-04-12T01:08:06.229Z,5.70
2023-04-12T01:10:46.721Z,5.70
2023-04-12T01:13:30.152Z,6.78
2023-04-12T01:16:06.860Z,5.82
2023-04-12T01:18:40.887Z,5.90
2023-04-12T01:21:17.609Z,8.85
2023-04-12T01:24:16.180Z,4.10
2023-04-12T01:26:47.924Z,6.25
2023-04-12T01:29:20.815Z,7.10
2023-04-12T01:31:56.014Z,5.22
2023-04-12T01:34:26.530Z,8.05
2023-04-12T01:36:56.822Z,5.70
2023-04-12T01:39:25.217Z,6.53
2023-04-12T01:41:53.630Z,5.03
2023-04-12T01:44:23.340Z,6.30
2023-04-12T01:46:53.015Z,4.88
2023-04-12T01:49:22.923Z,7.85
2023-04-12T01:51:58.690Z,6.35
2023-04-12T01:54:31.244Z,5.65
2023-04-12T01:57:03.832Z,4.95
2023-04-12T01:59:39.169Z,6.65
2023-04-12T02:02:08.690Z,4.65
2023-04-12T02:04:37.899Z,4.95
2023-04-12T02:07:06.250Z,6.53
2023-04-12T02:09:39.200Z,5.45
2023-04-12T02:12:08.630Z,5.78
2023-04-12T02:14:38.339Z,11.95
2023-04-12T02:17:08.679Z,6.35
2023-04-12T02:19:37.027Z,6.82
2023-04-12T02:22:05.816Z,4.70
2023-04-12T02:24:34.135Z,9.57
2023-04-12T02:27:02.641Z,6.32
2023-04-12T02:29:31.401Z,6.88
2023-04-12T02:32:01.110Z,8.65
2023-04-12T02:34:34.301Z,7.07
2023-04-12T02:37:03.810Z,6.00
2023-04-12T02:39:34.447Z,4.70
2023-04-12T02:42:02.792Z,7.68
2023-04-12T02:44:31.187Z,7.00
2023-04-12T02:47:00.950Z,7.25
2023-04-12T02:49:29.220Z,5.90
2023-04-12T02:51:57.953Z,5.63
2023-04-12T02:54:26.232Z,5.03
2023-04-12T02:56:54.480Z,6.22
2023-04-12T02:59:22.838Z,8.88
2023-04-12T03:01:51.279Z,8.70
2023-04-12T03:04:22.787Z,7.03
2023-04-12T03:06:53.940Z,7.30
2023-04-12T03:09:22.368Z,4.65
2023-04-12T03:11:50.916Z,4.50
2023-04-12T03:14:19.340Z,5.43
2023-04-12T03:16:49.205Z,4.63
2023-04-12T03:19:17.719Z,9.55
2023-04-12T03:21:47.561Z,6.85
2023-04-12T03:24:15.902Z,5.45
2023-04-12T03:26:44.756Z,7.03
2023-04-12T03:29:13.845Z,9.85
2023-04-12T03:31:42.271Z,5.72
2023-04-12T03:34:11.115Z,5.15
2023-04-12T03:36:39.506Z,6.82
2023-04-12T03:39:09.379Z,6.93
2023-04-12T03:41:37.647Z,7.80
2023-04-12T03:44:06.591Z,3.58
2023-04-12T03:46:35.151Z,8.02
2023-04-12T03:49:03.797Z,7.10
2023-04-12T03:51:32.098Z,6.47
2023-04-12T03:54:02.825Z,5.30
2023-04-12T03:56:32.478Z,4.78
2023-04-12T03:59:01.178Z,8.88
2023-04-12T04:01:29.600Z,6.70
2023-04-12T04:03:58.321Z,7.38
2023-04-12T04:06:27.122Z,10.93
2023-04-12T04:08:55.683Z,6.18
2023-04-12T04:11:23.961Z,6.88
2023-04-12T04:13:53.621Z,6.13
2023-04-12T04:16:22.084Z,6.13
2023-04-12T04:18:50.605Z,7.75
2023-04-12T04:21:19.604Z,7.05
2023-04-12T04:23:48.512Z,5.40
2023-04-12T04:26:17.165Z,6.15
2023-04-12T04:28:46.546Z,6.28
2023-04-12T04:31:17.752Z,6.47
2023-04-12T04:33:46.357Z,4.80
2023-04-12T04:36:16.503Z,6.22
2023-04-12T04:38:44.835Z,4.85
2023-04-12T04:41:13.084Z,5.07
2023-04-12T04:43:42.702Z,5.13
2023-04-12T04:46:11.152Z,4.32
2023-04-12T04:48:41.454Z,8.77
2023-04-12T04:51:09.848Z,5.72
2023-04-12T04:53:38.489Z,4.80
2023-04-12T04:56:08.120Z,6.95
2023-04-12T04:58:36.755Z,8.98
2023-04-12T05:01:05.841Z,5.43
2023-04-12T05:03:34.464Z,9.43
2023-04-12T05:06:04.269Z,7.80
2023-04-12T05:08:32.551Z,8.32
2023-04-12T05:11:00.837Z,8.10
2023-04-12T05:13:29.180Z,8.02
2023-04-12T05:15:57.458Z,6.72
2023-04-12T05:18:25.755Z,8.68
2023-04-12T05:20:56.888Z,10.10
2023-04-12T05:23:27.470Z,9.93
2023-04-12T05:25:55.809Z,12.23
2023-04-12T05:28:24.105Z,12.77
2023-04-12T05:30:52.557Z,11.00
2023-04-12T05:33:21.077Z,9.35
2023-04-12T05:35:49.535Z,10.23
2023-04-12T05:38:17.844Z,11.43
2023-04-12T05:40:51.089Z,15.55
2023-04-12T05:43:19.381Z,13.52
2023-04-12T05:45:51.807Z,14.05
2023-04-12T05:48:20.093Z,14.88
2023-04-12T05:50:52.868Z,17.27
2023-04-12T05:53:22.129Z,14.82
2023-04-12T05:55:52.092Z,13.63
2023-04-12T05:58:20.449Z,13.20
2023-04-12T06:00:49.794Z,22.08
2023-04-12T06:03:18.568Z,16.25
2023-04-12T06:05:47.808Z,14.88
2023-04-12T06:08:16.616Z,18.80
2023-04-12T06:10:44.902Z,19.25
2023-04-12T06:13:14.601Z,18.77
2023-04-12T06:15:43.505Z,12.73
2023-04-12T06:18:12.991Z,20.48
2023-04-12T06:20:41.734Z,21.88
2023-04-12T06:23:10.079Z,19.60
2023-04-12T06:25:39.107Z,12.02
2023-04-12T06:28:07.404Z,15.75
2023-04-12T06:30:37.960Z,15.80
2023-04-12T06:33:06.269Z,18.45
2023-04-12T06:35:34.639Z,20.77
2023-04-12T06:38:02.944Z,25.42
2023-04-12T06:40:31.627Z,21.48
2023-04-12T06:42:59.947Z,26.80
2023-04-12T06:45:28.230Z,15.23
2023-04-12T06:47:57.909Z,28.23
2023-04-12T06:50:27.446Z,23.05
2023-04-12T06:52:55.766Z,23.67
2023-04-12T06:55:24.099Z,22.30
2023-04-12T06:57:52.390Z,21.30
2023-04-12T07:00:21.282Z,19.63
2023-04-12T07:02:49.697Z,28.67
2023-04-12T07:05:19.688Z,18.80
2023-04-12T07:07:48.021Z,28.45
2023-04-12T07:10:16.622Z,28.45
2023-04-12T07:12:44.956Z,23.52
2023-04-12T07:15:15.212Z,33.90
2023-04-12T07:17:43.532Z,24.50
2023-04-12T07:20:13.296Z,41.60
2023-04-12T07:22:48.589Z,28.00
2023-04-12T07:25:17.238Z,27.55
2023-04-12T07:27:45.608Z,36.55
2023-04-12T07:30:14.824Z,38.53
2023-04-12T07:32:43.505Z,34.13
2023-04-12T07:35:12.242Z,47.20
2023-04-12T07:37:40.648Z,35.45
2023-04-12T07:40:11.066Z,45.95
2023-04-12T07:42:39.469Z,40.65
2023-04-12T07:45:09.225Z,35.22
2023-04-12T07:47:37.582Z,38.05
2023-04-12T07:50:07.516Z,45.70
2023-04-12T07:52:35.964Z,53.08
2023-04-12T07:55:04.462Z,58.53
2023-04-12T07:57:34.341Z,43.08
2023-04-12T08:00:02.829Z,53.30
2023-04-12T08:02:31.322Z,64.55
2023-04-12T08:04:59.805Z,54.38
2023-04-12T08:07:28.492Z,54.80
2023-04-12T08:09:56.803Z,54.95
2023-04-12T08:12:25.130Z,56.40
2023-04-12T08:14:54.883Z,40.15
2023-04-12T08:17:23.165Z,33.53
2023-04-12T08:19:51.539Z,38.63
2023-04-12T08:22:19.811Z,29.92
2023-04-12T08:24:49.983Z,33.53
2023-04-12T08:27:18.359Z,33.28
2023-04-12T08:29:46.770Z,44.15
2023-04-12T08:32:16.637Z,44.00
2023-04-12T08:34:49.270Z,33.78
2023-04-12T08:37:18.074Z,41.83
2023-04-12T08:39:46.594Z,40.30
2023-04-12T08:42:16.825Z,41.00
2023-04-12T08:44:45.880Z,37.28
2023-04-12T08:47:15.676Z,44.00
2023-04-12T08:49:44.638Z,37.83
2023-04-12T08:52:12.919Z,50.08
2023-04-12T08:54:41.802Z,35.50
2023-04-12T08:57:11.056Z,46.83
2023-04-12T08:59:40.907Z,41.97
2023-04-12T09:02:09.477Z,42.67
2023-04-12T09:04:50.452Z,33.17
2023-04-12T09:07:19.782Z,43.47
2023-04-12T09:09:51.766Z,39.75
2023-04-12T09:12:23.879Z,35.30
2023-04-12T09:15:09.606Z,37.15
2023-04-12T09:17:39.081Z,33.20
2023-04-12T09:20:25.902Z,39.00
2023-04-12T09:22:55.771Z,40.15
2023-04-12T09:25:44.744Z,33.15
2023-04-12T09:28:26.046Z,34.55
2023-04-12T09:30:55.467Z,30.80
2023-04-12T09:33:34.405Z,32.17
2023-04-12T09:36:05.804Z,32.15
2023-04-12T09:38:36.915Z,28.33
2023-04-12T09:41:21.332Z,33.78
2023-04-12T09:43:51.943Z,26.30
2023-04-12T09:46:20.488Z,30.95
2023-04-12T09:48:52.702Z,43.78
2023-04-12T09:51:31.241Z,29.85
2023-04-12T09:54:02.688Z,23.77
2023-04-12T09:56:32.754Z,21.75
2023-04-12T09:59:06.814Z,27.17
2023-04-12T10:01:38.010Z,22.27
2023-04-12T10:04:08.829Z,19.42
2023-04-12T10:06:39.002Z,31.48
2023-04-12T10:09:08.792Z,22.67
2023-04-12T10:11:42.125Z,26.80
2023-04-12T10:14:12.144Z,29.67
2023-04-12T10:16:42.251Z,32.00
2023-04-12T10:19:11.621Z,30.00
2023-04-12T10:21:42.578Z,21.08
2023-04-12T10:24:12.257Z,22.65
2023-04-12T10:26:44.220Z,19.50
2023-04-12T10:29:26.963Z,21.00
2023-04-12T10:31:56.614Z,21.83
2023-04-12T10:34:32.364Z,16.60
2023-04-12T10:37:02.991Z,21.83
2023-04-12T10:39:43.578Z,24.23
2023-04-12T10:42:24.226Z,20.52
2023-04-12T10:44:54.864Z,13.73
2023-04-12T10:47:59.046Z,14.77
2023-04-12T10:50:30.193Z,17.67
2023-04-12T10:53:27.164Z,17.38
2023-04-12T10:55:55.601Z,17.92
2023-04-12T10:59:01.197Z,19.08
2023-04-12T11:01:31.563Z,20.02
2023-04-12T11:04:18.830Z,17.58
2023-04-12T11:07:10.143Z,16.02
2023-04-12T11:09:44.623Z,15.93
2023-04-12T11:12:14.437Z,13.13
2023-04-12T11:14:50.094Z,15.45
2023-04-12T11:17:27.969Z,17.65
2023-04-12T11:20:04.985Z,10.70
2023-04-12T11:22:34.403Z,8.88
2023-04-12T11:25:05.058Z,8.80
2023-04-12T11:27:34.460Z,12.57
2023-04-12T11:30:03.710Z,12.88
2023-04-12T11:32:34.152Z,16.85
2023-04-12T11:35:03.368Z,13.10
2023-04-12T11:37:35.790Z,9.60
2023-04-12T11:40:06.979Z,10.95
2023-04-12T11:42:35.449Z,14.60
2023-04-12T11:45:10.227Z,8.13
2023-04-12T11:47:44.806Z,9.80
2023-04-12T11:50:13.482Z,11.00
2023-04-12T11:52:42.106Z,12.13
2023-04-12T11:55:14.161Z,12.63
2023-04-12T11:57:42.485Z,12.70
2023-04-12T12:00:12.106Z,12.85
2023-04-12T12:02:46.496Z,10.07
2023-04-12T12:05:18.501Z,9.43
2023-04-12T12:07:47.110Z,13.07
2023-04-12T12:10:31.623Z,11.45
2023-04-12T12:13:12.449Z,11.40
2023-04-12T12:15:41.144Z,8.32
2023-04-12T12:18:10.825Z,9.30
2023-04-12T12:20:43.837Z,14.30
2023-04-12T12:23:12.254Z,13.65
2023-04-12T12:25:48.146Z,8.95
2023-04-12T12:28:18.201Z,10.88
2023-04-12T12:30:48.788Z,12.88
2023-04-12T12:33:29.010Z,8.75
2023-04-12T12:36:03.874Z,10.32
2023-04-12T12:38:37.792Z,9.30
2023-04-12T12:41:22.263Z,10.63
2023-04-12T12:43:52.560Z,12.15
2023-04-12T12:46:22.045Z,11.68
2023-04-12T12:48:50.385Z,11.88
2023-04-12T12:51:19.841Z,10.57
2023-04-12T12:53:51.259Z,12.05
2023-04-12T12:56:21.454Z,9.40
2023-04-12T12:58:50.227Z,11.48
2023-04-12T13:01:18.636Z,11.00
2023-04-12T13:03:47.097Z,9.38
2023-04-12T13:06:15.567Z,14.68
2023-04-12T13:08:43.959Z,11.32
2023-04-12T13:11:12.462Z,8.80
2023-04-12T13:13:42.124Z,7.00
2023-04-12T13:16:11.082Z,6.50
2023-04-12T13:18:41.681Z,6.55
2023-04-12T13:21:10.040Z,4.65
2023-04-12T13:23:38.476Z,7.05
2023-04-12T13:26:16.459Z,4.75
2023-04-12T13:28:51.929Z,6.05
2023-04-12T13:31:20.482Z,4.75
2023-04-12T13:33:51.999Z,7.93
2023-04-12T13:36:24.921Z,8.50
2023-04-12T13:38:53.233Z,6.13
2023-04-12T13:41:21.502Z,6.35
2023-04-12T13:43:51.183Z,3.47
2023-04-12T13:46:19.561Z,7.57
2023-04-12T13:48:51.112Z,6.70
2023-04-12T13:51:19.518Z,6.45
2023-04-12T13:53:50.828Z,8.95
2023-04-12T13:56:19.431Z,6.82
2023-04-12T13:58:52.197Z,9.35
2023-04-12T14:01:23.523Z,7.28
2023-04-12T14:03:53.497Z,6.68
2023-04-12T14:06:21.983Z,7.32
2023-04-12T14:08:51.108Z,7.13
2023-04-12T14:11:19.591Z,11.60
2023-04-12T14:13:47.965Z,7.40
2023-04-12T14:16:17.673Z,4.20
2023-04-12T14:18:45.919Z,7.00
2023-04-12T14:21:14.272Z,4.82
2023-04-12T14:23:42.550Z,4.30
2023-04-12T14:26:23.556Z,5.07
2023-04-12T14:28:52.000Z,2.72
2023-04-12T14:31:22.028Z,3.72
2023-04-12T14:33:50.330Z,4.60
2023-04-12T14:36:18.892Z,2.45
2023-04-12T14:38:48.445Z,2.58
2023-04-12T14:41:17.081Z,4.22
2023-04-12T14:43:45.964Z,3.60
2023-04-12T14:46:14.426Z,1.90
2023-04-12T14:48:44.561Z,3.50
2023-04-12T14:51:12.869Z,5.10
2023-04-12T14:53:42.682Z,4.40
2023-04-12T14:56:23.823Z,3.67
2023-04-12T14:58:54.353Z,4.60
2023-04-12T15:01:23.693Z,3.35
2023-04-12T15:03:54.330Z,4.78
2023-04-12T15:06:45.858Z,8.35
2023-04-12T15:09:17.909Z,3.80
2023-04-12T15:11:47.366Z,3.08
2023-04-12T15:14:19.995Z,6.75
2023-04-12T15:16:50.825Z,5.65
2023-04-12T15:19:23.419Z,3.13
2023-04-12T15:21:52.550Z,5.35
2023-04-12T15:24:22.395Z,8.35
2023-04-12T15:26:52.561Z,5.57
2023-04-12T15:29:22.374Z,5.75
2023-04-12T15:31:56.084Z,6.38
2023-04-12T15:34:26.071Z,4.90
2023-04-12T15:36:54.541Z,7.47
2023-04-12T15:39:22.910Z,5.85
2023-04-12T15:41:51.326Z,6.15
2023-04-12T15:44:19.658Z,7.40
2023-04-12T15:46:59.516Z,6.72
2023-04-12T15:49:40.095Z,6.30
2023-04-12T15:52:09.080Z,10.85
2023-04-12T15:54:43.579Z,10.88
2023-04-12T15:57:12.353Z,9.00
2023-04-12T15:59:42.113Z,9.20
2023-04-12T16:02:12.784Z,8.50
2023-04-12T16:04:47.020Z,11.40
2023-04-12T16:07:15.579Z,9.85
2023-04-12T16:09:44.125Z,11.23
2023-04-12T16:12:12.417Z,6.57
2023-04-12T16:14:40.913Z,11.70
2023-04-12T16:17:09.220Z,5.40
2023-04-12T16:19:37.657Z,8.35
2023-04-12T16:22:07.872Z,7.40
2023-04-12T16:24:36.351Z,8.60
2023-04-12T16:27:05.117Z,7.32
2023-04-12T16:29:33.618Z,10.70
2023-04-12T16:32:03.863Z,12.38
2023-04-12T16:34:32.213Z,8.93
2023-04-12T16:37:00.510Z,11.40
2023-04-12T16:39:30.150Z,5.32
2023-04-12T16:41:58.431Z,9.02
2023-04-12T16:44:27.164Z,9.55
2023-04-12T16:46:56.182Z,7.72
2023-04-12T16:49:24.597Z,8.38
2023-04-12T16:51:53.244Z,9.05
2023-04-12T16:54:21.807Z,7.45
2023-04-12T16:56:51.714Z,11.70
2023-04-12T16:59:20.053Z,9.00
2023-04-12T17:01:51.204Z,7.43
2023-04-12T17:04:19.564Z,6.60
2023-04-12T17:06:50.721Z,8.82
2023-04-12T17:09:19.055Z,6.85
2023-04-12T17:11:47.555Z,6.55
2023-04-12T17:14:17.377Z,6.97
2023-04-12T17:16:45.731Z,10.77
2023-04-12T17:19:14.069Z,8.95
2023-04-12T17:21:43.220Z,9.13
2023-04-12T17:24:17.613Z,9.38
2023-04-12T17:26:46.594Z,10.35
2023-04-12T17:29:16.497Z,6.70
2023-04-12T17:31:45.709Z,6.38
2023-04-12T17:34:14.047Z,7.60
2023-04-12T17:36:42.811Z,6.10
2023-04-12T17:39:11.470Z,13.20
2023-04-12T17:41:40.458Z,8.60
2023-04-12T17:44:08.924Z,8.85
2023-04-12T17:46:38.773Z,10.98
2023-04-12T17:49:08.986Z,7.97
2023-04-12T17:51:37.320Z,4.93
2023-04-12T17:54:05.800Z,6.72
2023-04-12T17:56:34.263Z,11.60
2023-04-12T17:59:05.522Z,9.32
2023-04-12T18:01:36.686Z,5.32
2023-04-12T18:04:07.445Z,8.10
2023-04-12T18:06:35.892Z,8.95
2023-04-12T18:09:06.250Z,9.68
2023-04-12T18:11:38.702Z,7.75
2023-04-12T18:14:07.252Z,10.73
2023-04-12T18:16:35.774Z,6.90
2023-04-12T18:19:07.268Z,8.55
2023-04-12T18:21:36.131Z,10.60
2023-04-12T18:24:06.055Z,5.50
2023-04-12T18:26:34.484Z,6.63
2023-04-12T18:29:05.924Z,7.32
2023-04-12T18:31:34.356Z,11.70
2023-04-12T18:34:02.903Z,11.65
2023-04-12T18:36:32.735Z,8.85
2023-04-12T18:39:01.200Z,9.00
2023-04-12T18:41:29.533Z,10.77
2023-04-12T18:43:58.141Z,8.38
2023-04-12T18:46:27.292Z,10.27
2023-04-12T18:48:55.757Z,7.47
2023-04-12T18:51:24.701Z,6.15
2023-04-12T18:53:54.532Z,13.65
2023-04-12T18:56:24.519Z,9.15
2023-04-12T18:58:56.005Z,9.45
2023-04-12T19:01:25.539Z,8.60
2023-04-12T19:03:54.509Z,5.43
2023-04-12T19:06:22.957Z,4.93
2023-04-12T19:08:51.300Z,5.10
2023-04-12T19:11:21.296Z,14.15
2023-04-12T19:13:49.929Z,7.88
2023-04-12T19:16:18.400Z,4.75
2023-04-12T19:18:47.012Z,6.25
2023-04-12T19:21:18.525Z,9.55
2023-04-12T19:23:46.800Z,4.05
2023-04-12T19:26:17.073Z,5.13
2023-04-12T19:28:46.927Z,8.05
2023-04-12T19:31:15.229Z,4.85
2023-04-12T19:33:43.921Z,4.38
2023-04-12T19:36:12.345Z,7.47
2023-04-12T19:38:41.698Z,5.10
2023-04-12T19:41:10.143Z,5.93
2023-04-12T19:43:38.688Z,6.78
2023-04-12T19:46:11.015Z,7.25
2023-04-12T19:48:39.754Z,10.32
2023-04-12T19:51:08.422Z,10.15
2023-04-12T19:53:40.474Z,13.55
2023-04-12T19:56:09.798Z,3.75
2023-04-12T19:58:38.399Z,6.68
2023-04-12T20:01:09.893Z,8.70
2023-04-12T20:03:40.630Z,4.05
2023-04-12T20:06:09.000Z,2.38
2023-04-12T20:08:40.686Z,4.05
2023-04-12T20:11:08.993Z,4.45
2023-04-12T20:13:37.298Z,4.32
2023-04-12T20:16:10.019Z,6.28
2023-04-12T20:18:38.303Z,5.80
2023-04-12T20:21:09.889Z,3.70
2023-04-12T20:23:38.275Z,5.93
2023-04-12T20:26:07.397Z,5.18
2023-04-12T20:28:35.960Z,5.38
2023-04-12T20:31:04.640Z,3.15
2023-04-12T20:33:34.846Z,3.10
2023-04-12T20:36:03.471Z,3.35
2023-04-12T20:38:31.775Z,5.88
2023-04-12T20:41:00.243Z,3.10
2023-04-12T20:43:28.553Z,4.18
2023-04-12T20:45:56.953Z,2.55
2023-04-12T20:48:26.087Z,3.78
2023-04-12T20:50:56.289Z,4.30
2023-04-12T20:53:24.624Z,3.42
2023-04-12T20:55:53.250Z,3.83
2023-04-12T20:58:21.872Z,3.60
2023-04-12T21:00:50.359Z,6.28
2023-04-12T21:03:19.044Z,4.43
2023-04-12T21:06:00.892Z,2.65
2023-04-12T21:08:33.592Z,2.65
2023-04-12T21:11:02.777Z,4.70
2023-04-12T21:13:31.883Z,2.33
2023-04-12T21:16:00.819Z,5.70
2023-04-12T21:18:32.164Z,3.55
2023-04-12T21:21:01.294Z,4.07
2023-04-12T21:23:31.040Z,4.80
2023-04-12T21:25:59.708Z,5.05
2023-04-12T21:28:31.043Z,5.50
2023-04-12T21:30:59.694Z,5.43
2023-04-12T21:33:28.087Z,7.90
2023-04-12T21:35:57.004Z,2.30
2023-04-12T21:38:25.634Z,4.78
2023-04-12T21:40:58.748Z,3.70
2023-04-12T21:43:27.178Z,2.30
2023-04-12T21:45:55.616Z,4.00
2023-04-12T21:48:23.979Z,5.07
2023-04-12T21:50:52.523Z,4.25
2023-04-12T21:53:20.786Z,7.75
2023-04-12T21:55:50.834Z,5.25
2023-04-12T21:58:20.604Z,3.75
2023-04-12T22:00:52.520Z,2.33
2023-04-12T22:03:21.507Z,3.15
2023-04-12T22:06:02.895Z,2.42
2023-04-12T22:08:33.016Z,4.05
2023-04-12T22:11:02.084Z,1.50
2023-04-12T22:13:32.111Z,1.73
2023-04-12T22:16:02.733Z,2.10
2023-04-12T22:18:31.772Z,4.00
2023-04-12T22:21:04.074Z,1.55
2023-04-12T22:23:32.394Z,1.80
2023-04-12T22:26:00.839Z,1.80
2023-04-12T22:28:29.162Z,3.35
2023-04-12T22:31:00.703Z,2.13
2023-04-12T22:33:30.000Z,1.63
2023-04-12T22:35:58.693Z,2.97
2023-04-12T22:38:27.149Z,4.47
2023-04-12T22:41:02.410Z,2.40
2023-04-12T22:43:34.110Z,3.08
2023-04-12T22:46:06.053Z,2.53
2023-04-12T22:48:34.441Z,7.68
2023-04-12T22:51:03.778Z,1.73
2023-04-12T22:53:34.362Z,3.47
2023-04-12T22:56:02.932Z,4.05
2023-04-12T22:58:31.460Z,1.30
2023-04-12T23:00:59.985Z,5.22
2023-04-12T23:03:30.402Z,2.20
2023-04-12T23:05:59.734Z,6.25
2023-04-12T23:08:29.206Z,5.97
2023-04-12T23:11:02.406Z,3.95
2023-04-12T23:13:33.866Z,3.70
2023-04-12T23:16:03.410Z,3.20
2023-04-12T23:18:33.321Z,4.72
2023-04-12T23:21:02.818Z,4.32
2023-04-12T23:23:31.058Z,2.33
2023-04-12T23:25:59.552Z,4.25
2023-04-12T23:28:28.550Z,4.97
2023-04-12T23:30:59.083Z,3.70
2023-04-12T23:33:27.333Z,2.78
2023-04-12T23:35:57.109Z,3.95
2023-04-12T23:38:27.093Z,3.70
2023-04-12T23:40:55.450Z,5.32
2023-04-12T23:43:25.318Z,3.08
2023-04-12T23:45:54.406Z,4.75
2023-04-12T23:48:23.368Z,5.03
2023-04-12T23:50:52.514Z,4.45
2023-04-12T23:53:22.976Z,7.47
2023-04-12T23:55:53.808Z,4.32
2023-04-12T23:58:22.636Z,4.30
